Time;durP1;ratioP1;P1;durP2;ratioP2;P2;SDS_P1;SDS_P2;PMS_P1;PMS_P2;Temp;Humidity;BMP_temperature;BMP_pressure;BME280_temperature;BME280_humidity;BME280_pressure;Samples;Min_cycle;Max_cycle;Signal;HPM_P1;HPM_P2
2020/12/12 00:02:23;;;;;;;212.65;100.53;;;;;;;-4.84;82.81;96860.20;1776194;80;20917;-76
2020/12/12 00:04:49;;;;;;;209.43;89.13;;;;;;;-4.86;83.30;96858.80;1776314;80;21552;-75
2020/12/12 00:07:15;;;;;;;199.50;82.67;;;;;;;-4.86;83.33;96861.45;1776339;80;20936;-76
2020/12/12 00:09:41;;;;;;;206.05;88.78;;;;;;;-4.80;83.75;96855.81;1776259;80;20993;-80
2020/12/12 00:12:07;;;;;;;213.07;92.45;;;;;;;-4.92;83.21;96853.84;1776348;80;21244;-76
2020/12/12 00:14:33;;;;;;;200.70;97.05;;;;;;;-4.93;83.04;96856.18;1776233;80;21214;-76
2020/12/12 00:16:59;;;;;;;195.65;86.32;;;;;;;-5.01;83.59;96850.32;1746270;80;20976;-76
2020/12/12 00:19:25;;;;;;;183.97;83.58;;;;;;;-4.96;83.30;96851.81;1776294;80;21163;-79
2020/12/12 00:21:53;;;;;;;176.80;85.28;;;;;;;-4.94;83.48;96849.79;1776294;80;20904;-79
2020/12/12 00:24:19;;;;;;;172.45;68.83;;;;;;;-4.97;83.61;96836.98;1775734;80;21377;-76
2020/12/12 00:26:45;;;;;;;140.97;59.53;;;;;;;-4.96;83.79;96838.09;1745613;80;21211;-76
2020/12/12 00:29:12;;;;;;;144.17;61.65;;;;;;;-5.05;83.75;96835.89;1776003;80;22079;-78
2020/12/12 00:31:41;;;;;;;143.05;64.87;;;;;;;-5.05;85.32;96841.98;1745161;80;21610;-79
2020/12/12 00:34:07;;;;;;;100.72;48.68;;;;;;;-4.98;85.87;96841.45;1775218;80;21122;-76
2020/12/12 00:36:42;;;;;;;135.37;61.05;;;;;;;-4.89;85.28;96845.48;1745287;80;21410;-79
2020/12/12 00:39:08;;;;;;;144.77;60.90;;;;;;;-4.78;85.24;96837.42;1745213;80;21572;-78
2020/12/12 00:41:37;;;;;;;134.95;62.03;;;;;;;-4.72;84.61;96843.16;1775666;80;21152;-78
2020/12/12 00:44:04;;;;;;;120.90;55.30;;;;;;;-4.77;84.08;96850.93;1745470;80;21191;-78
2020/12/12 00:46:30;;;;;;;115.40;52.23;;;;;;;-4.79;84.46;96841.57;1775595;80;21052;-80
2020/12/12 00:48:56;;;;;;;131.47;49.58;;;;;;;-4.71;84.46;96845.29;1775701;80;21371;-76
2020/12/12 00:51:22;;;;;;;114.32;54.00;;;;;;;-4.65;84.59;96843.13;1775740;80;21074;-77
2020/12/12 00:53:47;;;;;;;71.42;31.85;;;;;;;-4.70;84.45;96846.42;1775693;80;21015;-76
2020/12/12 00:56:17;;;;;;;118.72;57.67;;;;;;;-4.66;85.05;96854.22;1745099;80;21023;-77
2020/12/12 00:58:43;;;;;;;131.27;58.95;;;;;;;-4.60;86.52;96855.22;1745271;80;21456;-78
2020/12/12 01:01:10;;;;;;;152.90;68.92;;;;;;;-4.54;86.89;96847.73;1775698;80;22135;-78
2020/12/12 01:03:36;;;;;;;169.28;78.28;;;;;;;-4.52;84.36;96850.19;1775573;80;21627;-79
2020/12/12 01:06:02;;;;;;;163.77;68.90;;;;;;;-4.64;83.76;96852.17;1775755;80;21047;-75
2020/12/12 01:08:28;;;;;;;145.53;65.78;;;;;;;-4.63;84.17;96858.27;1775753;80;21007;-75
2020/12/12 01:10:53;;;;;;;131.12;58.78;;;;;;;-4.62;84.35;96854.08;1775639;80;20940;-76
2020/12/12 01:13:19;;;;;;;140.12;66.30;;;;;;;-4.71;84.03;96860.64;1775727;80;21418;-78
2020/12/12 01:15:45;;;;;;;147.75;68.37;;;;;;;-4.76;84.61;96860.98;1775692;80;20925;-75
2020/12/12 01:18:11;;;;;;;134.52;60.65;;;;;;;-4.75;85.07;96852.03;1775551;80;21013;-76
2020/12/12 01:20:40;;;;;;;148.70;63.08;;;;;;;-4.68;84.64;96848.85;1745253;80;21546;-78
2020/12/12 01:23:06;;;;;;;;;;;;;;;-4.71;84.27;96846.61;1778332;80;21600;-76
2020/12/12 01:25:32;;;;;;;140.00;61.58;;;;;;;-4.69;84.22;96850.69;1775715;80;21443;-76
2020/12/12 01:27:58;;;;;;;155.63;64.37;;;;;;;-4.71;84.10;96858.50;1775661;80;20920;-76
2020/12/12 01:30:24;;;;;;;141.20;64.50;;;;;;;-4.68;84.16;96851.50;1775710;80;21071;-79
2020/12/12 01:32:50;;;;;;;138.60;65.45;;;;;;;-4.64;83.82;96845.55;1775726;80;20905;-76
2020/12/12 01:35:16;;;;;;;127.97;60.75;;;;;;;-4.74;83.22;96847.86;1745226;80;20908;-79
2020/12/12 01:37:43;;;;;;;139.40;60.40;;;;;;;-4.73;83.51;96841.54;1739846;80;22828;-79
2020/12/12 01:40:11;;;;;;;123.07;54.67;;;;;;;-4.69;83.80;96845.40;1775641;80;21531;-76
2020/12/12 01:42:37;;;;;;;119.37;52.17;;;;;;;-4.64;83.60;96846.88;1775397;80;21158;-79
2020/12/12 01:45:05;;;;;;;138.28;59.93;;;;;;;-4.69;83.87;96836.66;1775713;80;20956;-76
2020/12/12 01:47:31;;;;;;;129.30;61.55;;;;;;;-4.64;84.29;96834.98;1775729;80;21110;-76
2020/12/12 01:49:57;;;;;;;120.60;50.52;;;;;;;-4.52;84.33;96837.78;1775761;80;21448;-79
2020/12/12 01:52:23;;;;;;;127.72;55.78;;;;;;;-4.48;83.89;96834.99;1775642;80;20968;-79
2020/12/12 01:54:49;;;;;;;129.78;51.60;;;;;;;-4.65;84.56;96829.40;1775713;80;21015;-76
2020/12/12 01:57:21;;;;;;;120.20;53.42;;;;;;;-4.62;84.17;96829.48;1775666;80;21060;-79
2020/12/12 01:59:48;;;;;;;120.85;54.85;;;;;;;-4.65;84.59;96820.66;1775283;80;21107;-79
2020/12/12 02:02:15;;;;;;;105.37;47.40;;;;;;;-4.61;84.78;96824.52;1775700;80;21977;-79
2020/12/12 02:04:48;;;;;;;129.63;52.20;;;;;;;-4.58;84.66;96826.21;1745409;80;21051;-79
2020/12/12 02:07:16;;;;;;;126.50;55.45;;;;;;;-4.58;84.05;96826.72;1775091;80;21650;-79
2020/12/12 02:09:43;;;;;;;125.53;56.25;;;;;;;-4.58;84.05;96820.11;1775621;80;21457;-76
2020/12/12 02:12:09;;;;;;;126.82;59.05;;;;;;;-4.56;83.88;96816.23;1745624;80;21154;-76
2020/12/12 02:14:38;;;;;;;138.05;58.83;;;;;;;-4.59;83.58;96820.63;1745224;80;21197;-76
2020/12/12 02:17:05;;;;;;;119.97;52.15;;;;;;;-4.55;83.79;96823.64;1775702;80;21126;-76
2020/12/12 02:19:31;;;;;;;130.40;57.03;;;;;;;-4.65;83.15;96811.41;1775713;80;21572;-76
2020/12/12 02:21:57;;;;;;;116.12;49.65;;;;;;;-4.71;82.97;96819.66;1775705;80;21095;-76
2020/12/12 02:24:24;;;;;;;131.75;57.80;;;;;;;-4.67;83.28;96817.42;1775647;80;21201;-76
2020/12/12 02:26:50;;;;;;;125.42;54.05;;;;;;;-4.80;83.48;96810.88;1775744;80;21225;-79
2020/12/12 02:29:16;;;;;;;118.50;51.98;;;;;;;-4.71;83.88;96820.98;1775549;80;21162;-76
2020/12/12 02:31:43;;;;;;;117.42;52.15;;;;;;;-4.65;83.90;96816.69;1775616;80;21166;-79
2020/12/12 02:34:09;;;;;;;108.47;50.50;;;;;;;-4.60;83.59;96812.91;1775644;80;21148;-76
2020/12/12 02:36:36;;;;;;;126.15;50.95;;;;;;;-4.65;83.01;96808.77;1775627;80;20967;-76
2020/12/12 02:39:03;;;;;;;110.97;50.08;;;;;;;-4.67;83.51;96797.59;1775653;80;21342;-76
2020/12/12 02:41:29;;;;;;;108.20;49.27;;;;;;;-4.63;83.48;96804.06;1775587;80;21111;-77
2020/12/12 02:43:55;;;;;;;121.77;49.30;;;;;;;-4.61;83.62;96799.40;1775685;80;21070;-79
2020/12/12 02:46:21;;;;;;;118.33;53.68;;;;;;;-4.61;83.61;96798.08;1775672;80;20908;-76
2020/12/12 02:48:48;;;;;;;119.17;49.33;;;;;;;-4.59;83.72;96805.28;1745149;80;21590;-79
2020/12/12 02:51:19;;;;;;;122.82;52.13;;;;;;;-4.59;83.44;96800.80;1775635;80;22009;-79
2020/12/12 02:53:45;;;;;;;102.97;44.88;;;;;;;-4.65;83.77;96791.58;1774006;80;21062;-80
2020/12/12 02:56:18;;;;;;;106.78;44.20;;;;;;;-4.60;83.59;96796.53;1775759;80;21064;-76
2020/12/12 02:58:44;;;;;;;97.55;44.05;;;;;;;-4.61;83.81;96796.76;1775596;80;21035;-76
2020/12/12 03:01:10;;;;;;;126.87;49.30;;;;;;;-4.58;83.85;96792.35;1775677;80;21016;-79
2020/12/12 03:03:36;;;;;;;97.75;47.60;;;;;;;-4.55;83.90;96792.72;1775614;80;21583;-79
2020/12/12 03:06:02;;;;;;;109.78;45.33;;;;;;;-4.52;83.99;96790.70;1775601;80;20972;-80
2020/12/12 03:08:28;;;;;;;97.08;40.58;;;;;;;-4.50;84.04;96796.06;1775597;80;21118;-76
2020/12/12 03:10:54;;;;;;;64.55;33.15;;;;;;;-4.45;84.03;96788.28;1775588;80;21131;-80
2020/12/12 03:13:20;;;;;;;78.42;36.03;;;;;;;-4.44;84.05;96788.61;1775601;80;21079;-79
2020/12/12 03:15:46;;;;;;;89.07;39.70;;;;;;;-4.44;84.18;96790.41;1775695;80;21380;-80
2020/12/12 03:18:12;;;;;;;86.75;40.73;;;;;;;-4.37;84.18;96789.34;1775329;80;21487;-77
2020/12/12 03:20:38;;;;;;;94.10;40.67;;;;;;;-4.38;84.96;96787.72;1775623;80;21127;-78
2020/12/12 03:23:04;;;;;;;86.37;39.15;;;;;;;-4.25;84.73;96793.44;1775583;80;21036;-76
2020/12/12 03:25:30;;;;;;;76.85;34.98;;;;;;;-4.26;85.54;96786.53;1775644;80;21530;-76
2020/12/12 03:27:56;;;;;;;79.80;37.20;;;;;;;-4.22;84.93;96781.61;1775565;80;21201;-77
2020/12/12 03:30:22;;;;;;;82.12;39.78;;;;;;;-4.20;86.18;96792.27;1775606;80;21546;-79
2020/12/12 03:32:48;;;;;;;97.80;43.83;;;;;;;-4.10;85.61;96785.16;1775643;80;20952;-79
2020/12/12 03:35:14;;;;;;;80.85;38.80;;;;;;;-4.05;85.48;96780.04;1775650;80;21098;-77
2020/12/12 03:37:40;;;;;;;83.07;35.63;;;;;;;-3.98;85.17;96776.31;1775634;80;21021;-77
2020/12/12 03:40:06;;;;;;;91.00;37.67;;;;;;;-3.95;84.82;96776.37;1775706;80;21257;-79
2020/12/12 03:42:31;;;;;;;94.20;41.33;;;;;;;-3.93;84.29;96775.67;1775326;80;20960;-79
2020/12/12 03:44:57;;;;;;;92.55;44.13;;;;;;;-4.03;84.10;96779.30;1775571;80;20944;-76
2020/12/12 03:47:23;;;;;;;91.17;41.30;;;;;;;-4.07;84.44;96780.77;1775550;80;21698;-76
2020/12/12 03:49:49;;;;;;;100.02;43.80;;;;;;;-4.06;84.04;96779.74;1775565;80;20960;-76
2020/12/12 03:52:15;;;;;;;93.12;43.42;;;;;;;-4.15;83.71;96780.53;1775640;80;21307;-76
2020/12/12 03:54:41;;;;;;;76.85;38.83;;;;;;;-4.13;83.62;96775.83;1745182;80;21492;-76
2020/12/12 03:57:07;;;;;;;93.33;39.23;;;;;;;-4.09;83.82;96776.22;1775661;80;21150;-79
2020/12/12 03:59:34;;;;;;;88.35;37.10;;;;;;;-4.06;84.42;96771.80;1775576;80;21218;-77
2020/12/12 04:02:00;;;;;;;85.47;36.75;;;;;;;-4.05;84.18;96776.06;1775675;80;21091;-76
2020/12/12 04:04:26;;;;;;;90.28;40.30;;;;;;;-4.00;83.94;96774.91;1775755;80;21299;-79
2020/12/12 04:06:52;;;;;;;87.60;38.67;;;;;;;-4.00;84.35;96777.56;1775760;80;21044;-76
2020/12/12 04:09:17;;;;;;;98.20;45.45;;;;;;;-3.99;83.83;96774.69;1745254;80;21047;-80
2020/12/12 04:11:43;;;;;;;88.35;39.63;;;;;;;-4.05;83.59;96774.23;1775790;80;20940;-76
2020/12/12 04:14:09;;;;;;;88.10;40.80;;;;;;;-4.03;83.70;96768.20;1775807;80;21659;-80
2020/12/12 04:16:35;;;;;;;83.27;37.05;;;;;;;-4.09;83.89;96768.28;1775792;80;21192;-79
2020/12/12 04:19:01;;;;;;;70.37;33.15;;;;;;;-4.09;83.70;96774.90;1775622;80;20983;-77
2020/12/12 04:21:27;;;;;;;69.85;32.23;;;;;;;-4.14;84.02;96774.20;1775718;80;20936;-76
2020/12/12 04:23:52;;;;;;;71.20;34.33;;;;;;;-4.10;84.07;96773.25;1775671;80;20916;-77
2020/12/12 04:26:18;;;;;;;77.55;32.55;;;;;;;-4.06;84.06;96767.84;1775726;80;20905;-77
2020/12/12 04:28:44;;;;;;;78.50;36.40;;;;;;;-4.14;85.02;96772.08;1775719;80;21428;-77
2020/12/12 04:31:10;;;;;;;99.10;48.42;;;;;;;-4.08;84.80;96769.90;1775754;80;21098;-76
2020/12/12 04:33:36;;;;;;;94.20;44.08;;;;;;;-4.07;84.92;96774.16;1775723;80;21007;-79
2020/12/12 04:36:03;;;;;;;78.80;36.48;;;;;;;-4.02;84.54;96776.95;1775802;80;21500;-79
2020/12/12 04:38:31;;;;;;;79.97;40.17;;;;;;;-3.97;84.42;96774.47;1775731;80;21137;-76
2020/12/12 04:40:58;;;;;;;80.40;36.50;;;;;;;-4.02;84.19;96776.43;1775670;80;21611;-76
2020/12/12 04:43:28;;;;;;;73.00;33.35;;;;;;;-3.96;84.47;96776.08;1775648;80;21455;-79
2020/12/12 04:45:54;;;;;;;76.95;34.20;;;;;;;-3.88;84.66;96787.72;1745244;80;21229;-75
2020/12/12 04:48:19;;;;;;;71.22;30.60;;;;;;;-3.85;84.20;96786.46;1775766;80;20916;-75
2020/12/12 04:50:46;;;;;;;78.22;36.68;;;;;;;-3.90;83.98;96781.03;1745333;80;20932;-78
2020/12/12 04:53:18;;;;;;;102.25;52.00;;;;;;;-4.01;83.73;96781.23;1775718;80;21907;-78
2020/12/12 04:55:47;;;;;;;84.47;39.90;;;;;;;-4.10;83.70;96781.19;1775597;80;21051;-79
2020/12/12 04:58:19;;;;;;;98.45;42.08;;;;;;;-4.17;83.80;96785.23;1745487;80;21206;-76
2020/12/12 05:00:46;;;;;;;107.72;52.03;;;;;;;-4.18;84.04;96782.30;1774948;80;21194;-75
2020/12/12 05:03:16;;;;;;;84.40;40.83;;;;;;;-4.21;84.46;96780.06;1775693;80;21535;-79
2020/12/12 05:05:41;;;;;;;81.78;38.88;;;;;;;-4.18;83.96;96785.45;1775798;80;21114;-75
2020/12/12 05:08:11;;;;;;;89.87;40.67;;;;;;;-4.30;84.06;96782.69;1775620;80;21675;-78
2020/12/12 05:10:42;;;;;;;80.07;37.98;;;;;;;-4.28;84.24;96785.40;1746040;80;21127;-75
2020/12/12 05:13:20;;;;;;;88.90;41.08;;;;;;;-4.29;83.89;96783.78;1775659;80;21130;-79
2020/12/12 05:15:47;;;;;;;80.95;36.83;;;;;;;-4.37;83.71;96784.05;1746968;80;21166;-78
2020/12/12 05:18:13;;;;;;;82.88;39.35;;;;;;;-4.34;84.05;96782.83;1745298;80;21367;-78
2020/12/12 05:20:39;;;;;;;64.27;32.58;;;;;;;-4.35;84.39;96777.25;1775742;80;21105;-75
2020/12/12 05:23:18;;;;;;;70.22;35.50;;;;;;;-4.39;84.36;96782.66;1775711;80;21035;-75
2020/12/12 05:25:45;;;;;;;81.67;36.20;;;;;;;-4.37;84.70;96780.08;1775747;80;21064;-77
2020/12/12 05:28:13;;;;;;;67.15;31.70;;;;;;;-4.35;84.88;96783.86;1775702;80;21115;-80
2020/12/12 05:30:40;;;;;;;66.75;31.27;;;;;;;-4.33;84.47;96785.77;1775684;80;22080;-79
2020/12/12 05:33:08;;;;;;;58.45;31.75;;;;;;;-4.40;85.36;96781.84;1775673;80;21182;-77
2020/12/12 05:35:34;;;;;;;70.87;34.03;;;;;;;-4.31;85.52;96782.39;1715689;80;21166;-80
2020/12/12 05:38:00;;;;;;;73.02;32.38;;;;;;;-4.28;85.46;96785.40;1775789;80;21106;-77
2020/12/12 05:40:26;;;;;;;64.85;33.63;;;;;;;-4.24;85.13;96784.48;1745287;80;21555;-79
2020/12/12 05:42:52;;;;;;;80.45;39.30;;;;;;;-4.19;85.02;96782.48;1775748;80;21185;-76
2020/12/12 05:45:18;;;;;;;76.80;33.92;;;;;;;-4.16;85.05;96779.43;1745032;80;21022;-76
2020/12/12 05:47:44;;;;;;;76.60;35.58;;;;;;;-4.14;85.05;96786.63;1775631;80;20984;-79
2020/12/12 05:50:11;;;;;;;95.53;44.80;;;;;;;-4.14;85.08;96783.47;1775670;80;20924;-77
2020/12/12 05:52:39;;;;;;;84.37;41.23;;;;;;;-4.13;84.93;96786.41;1775745;80;21130;-77
2020/12/12 05:55:06;;;;;;;89.97;41.77;;;;;;;-4.15;84.92;96785.83;1775766;80;21395;-76
2020/12/12 05:57:32;;;;;;;91.15;43.75;;;;;;;-4.14;84.76;96790.60;1745152;80;21194;-76
2020/12/12 05:59:58;;;;;;;98.42;47.53;;;;;;;-4.20;84.24;96788.81;1775683;80;21106;-76
2020/12/12 06:02:25;;;;;;;118.15;57.48;;;;;;;-4.23;84.53;96783.96;1745179;80;20995;-79
2020/12/12 06:04:53;;;;;;;105.30;47.05;;;;;;;-4.33;83.92;96785.25;1745404;80;21044;-77
2020/12/12 06:07:30;;;;;;;105.67;50.90;;;;;;;-4.36;83.96;96783.53;1745407;80;22063;-77
2020/12/12 06:10:05;;;;;;;93.80;45.40;;;;;;;-4.44;85.19;96781.16;1773779;80;21191;-74
2020/12/12 06:12:32;;;;;;;88.47;46.23;;;;;;;-4.43;85.57;96778.83;1775763;80;21139;-76
2020/12/12 06:14:58;;;;;;;107.15;48.58;;;;;;;-4.43;85.09;96780.16;1775653;80;21110;-79
2020/12/12 06:17:46;;;;;;;97.90;49.63;;;;;;;-4.47;84.66;96777.63;1745238;80;21595;-78
2020/12/12 06:20:14;;;;;;;79.65;45.88;;;;;;;-4.46;84.49;96777.41;1745172;80;22200;-79
2020/12/12 06:22:40;;;;;;;116.67;46.18;;;;;;;-4.45;84.44;96778.22;1745285;80;21115;-79
2020/12/12 06:25:06;;;;;;;105.35;46.53;;;;;;;-4.47;84.11;96773.14;1720754;80;21161;-79
2020/12/12 06:27:39;;;;;;;121.33;53.15;;;;;;;-4.50;83.91;96784.67;1720516;80;21918;-80
2020/12/12 06:30:08;;;;;;;119.30;52.60;;;;;;;-4.61;83.49;96779.06;1746815;80;21177;-76
2020/12/12 06:32:34;;;;;;;107.58;52.27;;;;;;;-4.74;83.14;96779.64;1745554;80;21949;-79
2020/12/12 06:35:00;;;;;;;124.42;50.17;;;;;;;-4.80;83.22;96777.33;1775562;80;20968;-76
2020/12/12 06:37:33;;;;;;;105.92;49.03;;;;;;;-4.88;82.93;96772.30;1775747;80;21565;-78
2020/12/12 06:40:04;;;;;;;110.37;50.58;;;;;;;-4.86;83.32;96775.05;1775691;80;21146;-76
2020/12/12 06:42:34;;;;;;;108.60;49.38;;;;;;;-4.86;83.43;96771.08;1775665;80;21110;-76
2020/12/12 06:45:03;;;;;;;107.32;49.38;;;;;;;-4.85;83.44;96775.85;1771758;79;21480;-79
2020/12/12 06:47:41;;;;;;;109.90;50.75;;;;;;;-4.90;83.25;96783.08;1775677;80;21107;-76
2020/12/12 06:50:11;;;;;;;119.30;50.63;;;;;;;-4.90;83.44;96776.98;1744858;80;21111;-79
2020/12/12 06:52:36;;;;;;;108.65;46.53;;;;;;;-4.92;83.29;96777.20;1774894;80;21142;-79
2020/12/12 06:55:08;;;;;;;112.32;50.67;;;;;;;-4.89;83.43;96772.80;1775603;80;20925;-79
2020/12/12 06:57:42;;;;;;;105.78;51.63;;;;;;;-4.84;83.48;96773.50;1775564;80;21179;-79
2020/12/12 07:00:30;;;;;;;134.37;53.25;;;;;;;-4.78;83.49;96785.88;1775601;80;21122;-78
2020/12/12 07:03:05;;;;;;;104.03;51.90;;;;;;;-4.79;82.91;96777.63;1775828;80;21174;-79
2020/12/12 07:05:33;;;;;;;125.75;58.13;;;;;;;-4.73;83.40;96779.94;1775739;80;21047;-78
2020/12/12 07:08:06;;;;;;;121.22;53.92;;;;;;;-4.85;82.68;96775.85;1775728;80;21111;-75
2020/12/12 07:10:33;;;;;;;143.05;63.78;;;;;;;-4.82;82.81;96791.27;1774649;80;21360;-76
2020/12/12 07:12:59;;;;;;;143.37;61.05;;;;;;;-4.78;82.79;96785.88;1775547;80;21169;-76
2020/12/12 07:15:31;;;;;;;159.85;65.00;;;;;;;-4.71;83.24;96777.37;1775636;80;21178;-79
2020/12/12 07:18:08;;;;;;;150.90;62.67;;;;;;;-4.62;82.64;96784.53;1774395;80;21174;-76
2020/12/12 07:23:32;;;;;;;175.22;74.65;;;;;;;-4.62;81.95;96776.09;1733939;82;26560;-75
2020/12/12 07:25:58;;;;;;;159.65;64.35;;;;;;;-4.50;82.57;96778.06;1704672;82;21644;-78
2020/12/12 07:28:24;;;;;;;168.07;65.97;;;;;;;-4.40;82.64;96781.04;1733840;81;21049;-78
2020/12/12 07:30:50;;;;;;;158.47;66.35;;;;;;;-4.40;82.53;96776.55;1733767;82;21027;-75
2020/12/12 07:33:16;;;;;;;184.18;81.82;;;;;;;-4.26;82.83;96785.21;1733874;82;21013;-75
2020/12/12 07:35:43;;;;;;;172.57;77.08;;;;;;;-4.17;82.57;96782.59;1733892;82;21359;-75
2020/12/12 07:38:09;;;;;;;149.70;65.15;;;;;;;-4.08;82.75;96783.94;1733741;82;21166;-78
2020/12/12 07:40:36;;;;;;;161.52;70.42;;;;;;;-4.01;82.54;96786.53;1733958;82;21134;-78
2020/12/12 07:43:07;;;;;;;151.15;66.00;;;;;;;-3.93;82.59;96787.58;1704870;82;21047;-78
2020/12/12 07:48:05;;;;;;;152.80;66.65;;;;;;;-3.80;82.33;96786.11;1734078;82;21092;-75
2020/12/12 07:50:31;;;;;;;146.30;61.48;;;;;;;-3.73;82.32;96799.30;1733842;82;21150;-78
2020/12/12 07:53:08;;;;;;;160.63;70.92;;;;;;;-3.69;82.16;96793.84;1704940;82;21643;-73
2020/12/12 07:55:38;;;;;;;132.07;57.23;;;;;;;-3.67;81.89;96790.97;1733985;82;21594;-78
2020/12/12 07:58:01;;;;;;;138.10;60.67;;;;;;;-3.62;81.64;96787.16;1733337;82;21237;-76
2020/12/12 08:00:27;;;;;;;150.38;66.12;;;;;;;-3.65;81.44;96779.67;1734113;82;21284;-76
2020/12/12 08:02:57;;;;;;;147.15;68.62;;;;;;;-3.69;81.37;96784.06;1705055;82;20943;-76
2020/12/12 08:05:23;;;;;;;145.30;71.15;;;;;;;-3.63;81.68;96782.38;1733958;82;21066;-78
2020/12/12 08:07:49;;;;;;;152.57;73.92;;;;;;;-3.59;81.63;96780.09;1733939;82;21197;-78
2020/12/12 08:10:15;;;;;;;153.50;70.70;;;;;;;-3.53;81.74;96787.16;1733967;82;20959;-78
2020/12/12 08:12:42;;;;;;;170.53;75.52;;;;;;;-3.58;80.39;96779.89;1733944;81;21252;-76
2020/12/12 08:15:16;;;;;;;214.68;86.45;;;;;;;-3.50;81.15;96789.39;1733828;81;21178;-76
2020/12/12 08:17:41;;;;;;;449.55;184.87;;;;;;;-3.51;80.85;96796.50;1733652;82;21181;-77
2020/12/12 08:20:14;;;;;;;331.68;136.12;;;;;;;-3.73;80.05;96799.30;1733929;81;21202;-78
2020/12/12 08:22:40;;;;;;;213.60;93.25;;;;;;;-3.65;80.47;96802.98;1733880;81;21134;-78
2020/12/12 08:25:07;;;;;;;197.35;94.95;;;;;;;-3.63;80.72;96796.14;1704890;82;21279;-79
2020/12/12 08:27:33;;;;;;;183.80;83.87;;;;;;;-3.54;80.91;96794.81;1733741;82;21055;-78
2020/12/12 08:30:00;;;;;;;204.47;97.17;;;;;;;-3.42;81.12;96796.53;1733967;81;21077;-79
2020/12/12 08:32:39;;;;;;;204.13;86.08;;;;;;;-3.38;80.95;96801.38;1733927;82;21221;-76
2020/12/12 08:35:18;;;;;;;191.43;90.83;;;;;;;-3.29;81.05;96797.41;1683251;82;21480;-77
2020/12/12 08:37:59;;;;;;;275.73;117.70;;;;;;;-3.22;80.91;96806.09;1734174;82;21238;-75
2020/12/12 08:40:27;;;;;;;327.70;147.10;;;;;;;-3.18;80.68;96804.08;1705098;82;21075;-76
2020/12/12 08:42:56;;;;;;;374.58;168.45;;;;;;;-3.05;80.72;96807.11;1704950;82;21050;-76
2020/12/12 08:45:22;;;;;;;322.43;141.43;;;;;;;-2.95;80.74;96810.03;1734198;82;21099;-78
2020/12/12 08:48:06;;;;;;;288.60;123.85;;;;;;;-2.92;79.87;96808.25;1733947;82;21538;-78
2020/12/12 08:50:53;;;;;;;224.98;105.58;;;;;;;-2.82;80.28;96810.36;1734006;82;22077;-75
2020/12/12 08:53:30;;;;;;;247.27;114.30;;;;;;;-2.69;79.63;96810.20;1733840;82;21126;-75
2020/12/12 08:56:30;;;;;;;261.35;125.15;;;;;;;-2.50;80.49;96810.14;1733961;82;21630;-79
2020/12/12 08:59:06;;;;;;;183.32;92.57;;;;;;;-2.38;80.33;96811.81;1704781;82;21158;-75
2020/12/12 09:01:45;;;;;;;188.95;90.97;;;;;;;-2.13;80.63;96813.48;1733995;82;21063;-77
2020/12/12 09:04:24;;;;;;;168.95;85.00;;;;;;;-1.88;81.01;96814.10;1734080;82;21191;-75
2020/12/12 09:06:57;;;;;;;177.25;90.47;;;;;;;-1.69;80.72;96819.30;1732443;82;21080;-78
2020/12/12 09:09:51;;;;;;;257.87;118.13;;;;;;;-1.57;80.16;96822.23;1704918;82;21130;-78
2020/12/12 09:12:18;;;;;;;240.40;124.40;;;;;;;-1.48;80.28;96820.84;1791600;79;21140;-77
2020/12/12 09:14:44;;;;;;;253.30;131.20;;;;;;;-1.40;80.30;96818.36;1781230;80;21173;-78
2020/12/12 09:17:14;;;;;;;205.52;107.22;;;;;;;-1.26;80.29;96813.61;1761860;81;21251;-76
2020/12/12 09:19:39;;;;;;;189.30;104.25;;;;;;;-1.08;80.44;96812.12;1730705;80;21490;-79
2020/12/12 09:22:07;;;;;;;153.80;81.60;;;;;;;-0.97;80.38;96815.80;1761961;81;20959;-80
2020/12/12 09:24:32;;;;;;;138.65;71.55;;;;;;;-0.82;80.33;96814.77;1761816;80;21126;-77
2020/12/12 09:27:00;;;;;;;146.77;82.78;;;;;;;-0.67;80.57;96809.75;1761932;81;20986;-77
2020/12/12 09:29:27;;;;;;;143.15;73.00;;;;;;;-0.60;80.08;96800.28;1761251;80;21538;-77
2020/12/12 09:31:54;;;;;;;120.82;64.80;;;;;;;-0.50;80.27;96809.00;1729660;81;21178;-80
2020/12/12 09:34:20;;;;;;;138.03;76.75;;;;;;;-0.47;79.96;96810.64;1761827;80;21114;-79
2020/12/12 09:36:48;;;;;;;156.12;80.00;;;;;;;-0.59;78.51;96809.90;1754652;80;21058;-79
2020/12/12 09:39:14;;;;;;;174.55;88.85;;;;;;;-0.52;79.67;96810.54;1761791;80;21197;-77
2020/12/12 09:41:40;;;;;;;171.93;87.33;;;;;;;-0.48;79.60;96813.02;1729497;81;21074;-77
2020/12/12 09:44:06;;;;;;;175.53;96.28;;;;;;;-0.52;78.90;96800.42;1729581;81;21086;-79
2020/12/12 09:46:33;;;;;;;180.72;88.00;;;;;;;-0.51;79.58;96806.86;1761745;80;21635;-78
2020/12/12 09:48:58;;;;;;;201.98;90.25;;;;;;;-0.41;79.86;96805.70;1729503;81;21649;-76
2020/12/12 09:51:24;;;;;;;174.95;86.20;;;;;;;-0.34;79.95;96806.89;1761788;80;20950;-77
2020/12/12 09:53:52;;;;;;;148.20;70.70;;;;;;;-0.22;80.09;96808.95;1761857;81;20936;-76
2020/12/12 09:56:18;;;;;;;101.00;46.90;;;;;;;-0.14;80.10;96808.56;1761715;80;21571;-78
2020/12/12 09:58:44;;;;;;;95.77;48.00;;;;;;;-0.08;79.59;96807.61;1761724;80;21191;-76
2020/12/12 10:01:11;;;;;;;79.03;40.30;;;;;;;-0.05;79.83;96808.98;1761729;80;21479;-79
2020/12/12 10:03:37;;;;;;;74.95;39.25;;;;;;;0.03;80.06;96808.58;1761742;81;21149;-79
2020/12/12 10:06:08;;;;;;;68.42;37.45;;;;;;;0.13;80.13;96802.08;1729524;81;22114;-76
2020/12/12 10:08:34;;;;;;;81.35;41.70;;;;;;;0.24;80.22;96797.17;1729586;81;21145;-76
2020/12/12 10:11:00;;;;;;;116.20;57.90;;;;;;;0.33;80.20;96794.10;1761752;80;21488;-79
2020/12/12 10:13:26;;;;;;;119.35;59.40;;;;;;;0.42;79.89;96797.44;1761839;81;21010;-79
2020/12/12 10:15:52;;;;;;;112.40;54.67;;;;;;;0.49;79.84;96795.41;1761800;80;21122;-77
2020/12/12 10:18:18;;;;;;;104.07;53.73;;;;;;;0.54;79.01;96792.83;1761841;81;21200;-76
2020/12/12 10:20:45;;;;;;;126.53;59.98;;;;;;;0.43;79.20;96802.27;1761679;80;20904;-79
2020/12/12 10:23:10;;;;;;;175.35;92.75;;;;;;;0.36;78.43;96797.10;1754681;80;21661;-78
2020/12/12 10:25:39;;;;;;;206.78;106.15;;;;;;;0.34;78.59;96797.05;1761744;80;20975;-76
2020/12/12 10:28:04;;;;;;;203.77;101.58;;;;;;;0.28;78.59;96802.31;1761682;81;21173;-79
2020/12/12 10:30:31;;;;;;;191.80;103.25;;;;;;;0.33;79.66;96797.57;1761701;80;21438;-79
2020/12/12 10:33:00;;;;;;;177.22;87.72;;;;;;;0.37;79.50;96799.23;1761725;81;21181;-79
2020/12/12 10:35:25;;;;;;;176.72;88.20;;;;;;;0.39;79.83;96803.80;1761626;80;21176;-76
2020/12/12 10:37:51;;;;;;;186.07;96.92;;;;;;;0.32;79.10;96796.48;1729792;81;21074;-76
2020/12/12 10:40:20;;;;;;;196.10;106.55;;;;;;;0.27;79.45;96802.04;1761752;80;21024;-76
2020/12/12 10:42:44;;;;;;;183.90;91.67;;;;;;;0.23;79.49;96800.89;1761705;80;21141;-76
2020/12/12 10:45:11;;;;;;;196.35;99.70;;;;;;;0.26;79.75;96805.75;1754754;80;20950;-80
2020/12/12 10:47:37;;;;;;;168.07;88.27;;;;;;;0.26;79.59;96804.42;1761843;81;21225;-77
2020/12/12 10:50:04;;;;;;;166.15;89.75;;;;;;;0.22;79.40;96805.95;1761834;80;21561;-79
2020/12/12 10:52:30;;;;;;;135.20;72.35;;;;;;;0.27;79.80;96801.23;1761781;81;21185;-77
2020/12/12 10:54:56;;;;;;;131.52;71.75;;;;;;;0.28;79.71;96795.66;1761760;80;21255;-77
2020/12/12 10:57:22;;;;;;;132.67;66.45;;;;;;;0.27;79.81;96802.56;1761722;80;20996;-76
2020/12/12 10:59:48;;;;;;;140.88;72.92;;;;;;;0.29;79.92;96800.45;1761775;80;20896;-76
2020/12/12 11:02:14;;;;;;;136.45;73.80;;;;;;;0.31;79.56;96801.54;1761724;80;20974;-78
2020/12/12 11:04:40;;;;;;;128.87;69.37;;;;;;;0.35;79.87;96798.69;1761755;80;21439;-79
2020/12/12 11:07:07;;;;;;;127.72;68.70;;;;;;;0.42;80.00;96792.11;1761753;81;21230;-76
2020/12/12 11:09:34;;;;;;;128.12;68.15;;;;;;;0.48;80.08;96797.00;1761841;80;21455;-79
2020/12/12 11:12:00;;;;;;;130.32;71.22;;;;;;;0.51;80.10;96792.00;1729802;81;21467;-76
2020/12/12 11:14:28;;;;;;;118.60;61.15;;;;;;;0.53;80.15;96795.75;1761757;80;21213;-78
2020/12/12 11:16:55;;;;;;;120.87;67.92;;;;;;;0.59;80.08;96797.94;1762058;80;21129;-76
2020/12/12 11:19:22;;;;;;;131.20;67.70;;;;;;;0.54;80.10;96799.50;1761694;80;21222;-76
2020/12/12 11:21:48;;;;;;;123.85;68.52;;;;;;;0.58;80.32;96801.13;1761617;81;21566;-76